Private Wetterstation Sandau
Wetterdaten: Freitag, 14.09.2012
Datum Zeit Temp. A. Feuchte A. Luftdruck Regen Wind Richtung Richtung Taupunkt Windchill
14.09.2012 00:01 12,4 C 78 % 1017,1 hPa 0,0 l/m 1,8 km/h (1 Bft) S-SW 202 8,7 C 12,4 C
14.09.2012 00:06 12,3 C 78 % 1017,0 hPa 0,0 l/m 3,6 km/h (1 Bft) S 180 8,6 C 12,3 C
14.09.2012 00:11 12,3 C 78 % 1017,0 hPa 0,0 l/m 0,0 km/h (0 Bft) S 180 8,6 C 12,3 C
14.09.2012 00:16 12,2 C 79 % 1017,1 hPa 0,0 l/m 0,0 km/h (0 Bft) S 180 8,7 C 12,2 C
14.09.2012 00:21 12,1 C 79 % 1016,9 hPa 0,0 l/m 2,2 km/h (1 Bft) S 180 8,6 C 12,1 C
14.09.2012 00:26 12,1 C 79 % 1016,8 hPa 0,0 l/m 1,4 km/h (1 Bft) S-SW 202 8,6 C 12,1 C
14.09.2012 00:31 11,9 C 79 % 1016,9 hPa 0,0 l/m 2,9 km/h (1 Bft) S 180 8,4 C 11,9 C
14.09.2012 00:36 11,9 C 79 % 1016,8 hPa 0,0 l/m 0,0 km/h (0 Bft) S 180 8,4 C 11,9 C
14.09.2012 00:41 11,8 C 80 % 1016,8 hPa 0,0 l/m 0,0 km/h (0 Bft) S 180 8,5 C 11,8 C
14.09.2012 00:46 11,7 C 80 % 1016,7 hPa 0,0 l/m 1,4 km/h (1 Bft) W-SW 247 8,4 C 11,7 C
14.09.2012 00:51 11,6 C 80 % 1016,8 hPa 0,0 l/m 1,8 km/h (1 Bft) SW 225 8,3 C 11,6 C
14.09.2012 00:56 11,6 C 80 % 1016,7 hPa 0,0 l/m 0,0 km/h (0 Bft) SW 225 8,3 C 11,6 C
14.09.2012 01:01 11,5 C 81 % 1016,6 hPa 0,0 l/m 0,0 km/h (0 Bft) SW 225 8,4 C 11,5 C
14.09.2012 01:06 11,4 C 81 % 1016,6 hPa 0,0 l/m 0,0 km/h (0 Bft) SW 225 8,3 C 11,4 C
14.09.2012 01:11 11,3 C 81 % 1016,7 hPa 0,0 l/m 0,0 km/h (0 Bft) SW 225 8,2 C 11,3 C
14.09.2012 01:16 11,2 C 81 % 1016,6 hPa 0,0 l/m 0,0 km/h (0 Bft) SW 225 8,1 C 11,2 C
14.09.2012 01:21 11,0 C 81 % 1016,5 hPa 0,0 l/m 1,1 km/h (1 Bft) SW 225 7,9 C 11,0 C
14.09.2012 01:26 10,9 C 82 % 1016,5 hPa 0,0 l/m 0,0 km/h (0 Bft) SW 225 7,9 C 10,9 C
14.09.2012 01:31 10,9 C 82 % 1016,4 hPa 0,0 l/m 0,0 km/h (0 Bft) SW 225 7,9 C 10,9 C
14.09.2012 01:36 10,8 C 82 % 1016,4 hPa 0,0 l/m 0,0 km/h (0 Bft) SW 225 7,9 C 10,8 C
14.09.2012 01:41 10,8 C 82 % 1016,3 hPa 0,0 l/m 0,0 km/h (0 Bft) SW 225 7,9 C 10,8 C
14.09.2012 01:46 10,7 C 82 % 1016,3 hPa 0,0 l/m 0,0 km/h (0 Bft) SW 225 7,8 C 10,7 C
14.09.2012 01:51 10,5 C 82 % 1016,4 hPa 0,0 l/m 2,9 km/h (1 Bft) SW 225 7,6 C 10,5 C
14.09.2012 01:56 10,4 C 82 % 1016,4 hPa 0,0 l/m 2,2 km/h (1 Bft) SW 225 7,5 C 10,4 C
14.09.2012 02:01 10,3 C 82 % 1016,3 hPa 0,0 l/m 2,2 km/h (1 Bft) SW 225 7,4 C 10,3 C
14.09.2012 02:06 10,3 C 83 % 1016,2 hPa 0,0 l/m 2,2 km/h (1 Bft) SW 225 7,5 C 10,3 C
14.09.2012 02:11 10,3 C 83 % 1016,2 hPa 0,0 l/m 0,0 km/h (0 Bft) SW 225 7,5 C 10,3 C
14.09.2012 02:16 10,3 C 83 % 1016,1 hPa 0,0 l/m 0,0 km/h (0 Bft) SW 225 7,5 C 10,3 C
14.09.2012 02:21 10,2 C 84 % 1016,0 hPa 0,0 l/m 0,0 km/h (0 Bft) SW 225 7,6 C 10,2 C
14.09.2012 02:26 10,2 C 84 % 1016,0 hPa 0,0 l/m 0,0 km/h (0 Bft) SW 225 7,6 C 10,2 C
14.09.2012 02:31 10,2 C 84 % 1015,8 hPa 0,0 l/m 0,0 km/h (0 Bft) SW 225 7,6 C 10,2 C
14.09.2012 02:36 10,2 C 84 % 1015,7 hPa 0,0 l/m 0,0 km/h (0 Bft) SW 225 7,6 C 10,2 C
14.09.2012 02:41 10,2 C 84 % 1015,8 hPa 0,0 l/m 0,0 km/h (0 Bft) SW 225 7,6 C 10,2 C
14.09.2012 02:46 10,1 C 84 % 1015,8 hPa 0,0 l/m 1,1 km/h (1 Bft) SW 225 7,5 C 10,1 C
14.09.2012 02:51 10,1 C 84 % 1015,9 hPa 0,0 l/m 0,0 km/h (0 Bft) SW 225 7,5 C 10,1 C
14.09.2012 02:56 9,9 C 84 % 1015,8 hPa 0,0 l/m 0,0 km/h (0 Bft) SW 225 7,3 C 9,9 C
14.09.2012 03:01 9,9 C 84 % 1015,7 hPa 0,0 l/m 0,0 km/h (0 Bft) SW 225 7,3 C 9,9 C
14.09.2012 03:06 9,9 C 84 % 1015,6 hPa 0,0 l/m 2,2 km/h (1 Bft) SW 225 7,3 C 9,9 C
14.09.2012 03:11 9,8 C 84 % 1015,6 hPa 0,0 l/m 2,5 km/h (1 Bft) SW 225 7,2 C 9,8 C
14.09.2012 03:16 9,8 C 85 % 1015,6 hPa 0,0 l/m 2,5 km/h (1 Bft) S-SO 157 7,4 C 9,8 C
14.09.2012 03:21 9,8 C 85 % 1015,6 hPa 0,0 l/m 1,8 km/h (1 Bft) S 180 7,4 C 9,8 C
14.09.2012 03:26 9,8 C 85 % 1015,6 hPa 0,0 l/m 3,2 km/h (1 Bft) S-SW 202 7,4 C 9,8 C
14.09.2012 03:31 9,8 C 85 % 1015,5 hPa 0,0 l/m 4,7 km/h (1 Bft) S-SW 202 7,4 C 9,6 C
14.09.2012 03:36 9,8 C 85 % 1015,5 hPa 0,0 l/m 0,0 km/h (0 Bft) S-SW 202 7,4 C 9,8 C
14.09.2012 03:41 9,8 C 85 % 1015,6 hPa 0,0 l/m 3,2 km/h (1 Bft) S 180 7,4 C 9,8 C
14.09.2012 03:46 9,8 C 85 % 1015,4 hPa 0,0 l/m 3,6 km/h (1 Bft) S-SW 202 7,4 C 9,8 C
14.09.2012 03:51 9,8 C 86 % 1015,5 hPa 0,0 l/m 3,2 km/h (1 Bft) S-SW 202 7,6 C 9,8 C
14.09.2012 03:56 9,7 C 86 % 1015,4 hPa 0,0 l/m 1,8 km/h (1 Bft) S-SW 202 7,5 C 9,7 C
14.09.2012 04:01 9,7 C 86 % 1015,4 hPa 0,0 l/m 3,6 km/h (1 Bft) S 180 7,5 C 9,7 C
14.09.2012 04:06 9,6 C 86 % 1015,2 hPa 0,0 l/m 1,4 km/h (1 Bft) S-SW 202 7,4 C 9,6 C
14.09.2012 04:11 9,6 C 86 % 1015,1 hPa 0,0 l/m 1,4 km/h (1 Bft) S-SO 157 7,4 C 9,6 C
14.09.2012 04:16 9,6 C 86 % 1015,1 hPa 0,0 l/m 0,0 km/h (0 Bft) S-SO 157 7,4 C 9,6 C
14.09.2012 04:21 9,6 C 86 % 1015,1 hPa 0,0 l/m 2,5 km/h (1 Bft) S-SO 157 7,4 C 9,6 C
14.09.2012 04:26 9,6 C 86 % 1015,1 hPa 0,0 l/m 1,4 km/h (1 Bft) S 180 7,4 C 9,6 C
14.09.2012 04:31 9,7 C 86 % 1015,0 hPa 0,0 l/m 0,0 km/h (0 Bft) S-SW 202 7,5 C 9,7 C
14.09.2012 04:36 9,7 C 86 % 1014,9 hPa 0,0 l/m 3,2 km/h (1 Bft) S-SW 202 7,5 C 9,7 C
14.09.2012 04:41 9,8 C 86 % 1014,9 hPa 0,0 l/m 5,0 km/h (1 Bft) S-SW 202 7,6 C 9,5 C
14.09.2012 04:46 9,8 C 86 % 1014,7 hPa 0,0 l/m 2,2 km/h (1 Bft) S 180 7,6 C 9,8 C
14.09.2012 04:51 9,8 C 86 % 1014,5 hPa 0,0 l/m 3,6 km/h (1 Bft) S-SO 157 7,6 C 9,8 C
14.09.2012 04:56 9,8 C 87 % 1014,6 hPa 0,0 l/m 3,6 km/h (1 Bft) S-SO 157 7,7 C 9,8 C
14.09.2012 05:01 9,9 C 87 % 1014,6 hPa 0,0 l/m 2,9 km/h (1 Bft) S 180 7,8 C 9,9 C
14.09.2012 05:06 9,9 C 87 % 1014,7 hPa 0,0 l/m 4,3 km/h (1 Bft) W-SW 247 7,8 C 9,9 C
14.09.2012 05:11 10,1 C 87 % 1014,6 hPa 0,0 l/m 0,0 km/h (0 Bft) S 180 8,0 C 10,1 C
14.09.2012 05:16 10,1 C 87 % 1014,6 hPa 0,0 l/m 2,2 km/h (1 Bft) S-SW 202 8,0 C 10,1 C
14.09.2012 05:21 10,2 C 87 % 1014,7 hPa 0,0 l/m 2,2 km/h (1 Bft) S 180 8,1 C 10,2 C
14.09.2012 05:26 10,2 C 87 % 1014,6 hPa 0,0 l/m 2,5 km/h (1 Bft) S 180 8,1 C 10,2 C
14.09.2012 05:31 10,3 C 87 % 1014,5 hPa 0,0 l/m 3,6 km/h (1 Bft) W-SW 247 8,2 C 10,3 C
14.09.2012 05:36 10,4 C 87 % 1014,5 hPa 0,0 l/m 7,6 km/h (2 Bft) W-SW 247 8,3 C 10,4 C
14.09.2012 05:41 10,4 C 87 % 1014,3 hPa 0,0 l/m 8,6 km/h (2 Bft) SW 225 8,3 C 10,4 C
14.09.2012 05:46 10,5 C 87 % 1014,3 hPa 0,0 l/m 2,9 km/h (1 Bft) W-SW 247 8,4 C 10,5 C
14.09.2012 05:51 10,6 C 87 % 1014,1 hPa 0,0 l/m 7,2 km/h (2 Bft) S-SW 202 8,5 C 10,6 C
14.09.2012 05:56 10,6 C 87 % 1014,0 hPa 0,0 l/m 5,4 km/h (1 Bft) S-SW 202 8,5 C 10,6 C
14.09.2012 06:01 10,7 C 87 % 1014,0 hPa 0,0 l/m 0,0 km/h (0 Bft) SW 225 8,6 C 10,7 C
14.09.2012 06:06 10,8 C 87 % 1013,9 hPa 0,0 l/m 1,4 km/h (1 Bft) S 180 8,7 C 10,8 C
14.09.2012 06:11 10,8 C 87 % 1014,0 hPa 0,0 l/m 4,0 km/h (1 Bft) S 180 8,7 C 10,8 C
14.09.2012 06:16 10,8 C 87 % 1013,8 hPa 0,0 l/m 4,7 km/h (1 Bft) S-SW 202 8,7 C 10,8 C
14.09.2012 06:21 10,8 C 86 % 1013,9 hPa 0,0 l/m 2,9 km/h (1 Bft) S-SW 202 8,6 C 10,8 C
14.09.2012 06:26 10,8 C 86 % 1013,9 hPa 0,0 l/m 7,2 km/h (2 Bft) SW 225 8,6 C 10,8 C
14.09.2012 06:31 10,8 C 87 % 1013,8 hPa 0,0 l/m 6,5 km/h (2 Bft) W-SW 247 8,7 C 10,8 C
14.09.2012 06:36 10,8 C 87 % 1013,7 hPa 0,0 l/m 4,3 km/h (1 Bft) S 180 8,7 C 10,8 C
14.09.2012 06:41 10,8 C 87 % 1013,8 hPa 0,0 l/m 7,9 km/h (2 Bft) SW 225 8,7 C 10,8 C
14.09.2012 06:46 10,8 C 87 % 1013,8 hPa 0,0 l/m 4,7 km/h (1 Bft) SW 225 8,7 C 10,8 C
14.09.2012 06:51 10,9 C 87 % 1013,7 hPa 0,0 l/m 11,5 km/h (2 Bft) W-SW 247 8,8 C 10,9 C
14.09.2012 06:56 10,9 C 87 % 1013,7 hPa 0,0 l/m 11,2 km/h (2 Bft) S-SW 202 8,8 C 10,9 C
14.09.2012 07:01 11,0 C 87 % 1013,5 hPa 0,0 l/m 5,0 km/h (1 Bft) SW 225 8,9 C 11,0 C
14.09.2012 07:06 11,1 C 87 % 1013,5 hPa 0,0 l/m 5,4 km/h (1 Bft) SW 225 9,0 C 11,1 C
14.09.2012 07:11 11,1 C 86 % 1013,5 hPa 0,0 l/m 5,4 km/h (1 Bft) SW 225 8,8 C 11,1 C
14.09.2012 07:16 11,2 C 86 % 1013,6 hPa 0,0 l/m 5,0 km/h (1 Bft) S 180 8,9 C 11,2 C
14.09.2012 07:21 11,3 C 86 % 1013,6 hPa 0,0 l/m 5,4 km/h (1 Bft) W-SW 247 9,0 C 11,3 C
14.09.2012 07:26 11,3 C 86 % 1013,7 hPa 0,0 l/m 8,6 km/h (2 Bft) W 270 9,0 C 11,3 C
14.09.2012 07:31 11,4 C 86 % 1013,5 hPa 0,0 l/m 15,1 km/h (3 Bft) W-SW 247 9,1 C 11,4 C
14.09.2012 07:36 11,4 C 86 % 1013,5 hPa 0,0 l/m 5,0 km/h (1 Bft) SW 225 9,1 C 11,4 C
14.09.2012 07:41 11,5 C 86 % 1013,4 hPa 0,0 l/m 10,8 km/h (2 Bft) SW 225 9,2 C 11,5 C
14.09.2012 07:46 11,7 C 86 % 1013,5 hPa 0,0 l/m 8,3 km/h (2 Bft) S-SW 202 9,4 C 11,7 C
14.09.2012 07:51 11,8 C 85 % 1013,5 hPa 0,0 l/m 3,2 km/h (1 Bft) S-SW 202 9,4 C 11,8 C
14.09.2012 07:56 11,8 C 85 % 1013,4 hPa 0,0 l/m 8,3 km/h (2 Bft) SW 225 9,4 C 11,8 C
14.09.2012 08:01 11,8 C 85 % 1013,3 hPa 0,0 l/m 6,5 km/h (2 Bft) W-SW 247 9,4 C 11,8 C
14.09.2012 08:06 11,9 C 85 % 1013,3 hPa 0,0 l/m 4,7 km/h (1 Bft) S-SO 157 9,5 C 11,9 C
14.09.2012 08:11 11,9 C 85 % 1013,1 hPa 0,0 l/m 8,3 km/h (2 Bft) S-SW 202 9,5 C 11,9 C
14.09.2012 08:16 12,0 C 84 % 1013,1 hPa 0,0 l/m 10,8 km/h (2 Bft) S-SW 202 9,4 C 12,0 C
14.09.2012 08:21 12,1 C 84 % 1013,0 hPa 0,0 l/m 9,7 km/h (2 Bft) W-SW 247 9,5 C 12,1 C
14.09.2012 08:26 12,1 C 84 % 1012,9 hPa 0,0 l/m 5,0 km/h (1 Bft) S 180 9,5 C 12,1 C
14.09.2012 08:31 12,2 C 84 % 1012,9 hPa 0,0 l/m 5,4 km/h (1 Bft) S 180 9,6 C 12,2 C
14.09.2012 08:36 12,3 C 84 % 1012,8 hPa 0,0 l/m 20,9 km/h (4 Bft) SW 225 9,7 C 12,3 C
14.09.2012 08:41 12,4 C 83 % 1012,8 hPa 0,0 l/m 15,8 km/h (3 Bft) W-SW 247 9,6 C 12,4 C
14.09.2012 08:46 12,5 C 83 % 1012,7 hPa 0,0 l/m 8,6 km/h (2 Bft) S-SW 202 9,7 C 12,5 C
14.09.2012 08:51 12,5 C 82 % 1012,7 hPa 0,0 l/m 14,4 km/h (3 Bft) W-SW 247 9,5 C 12,5 C
14.09.2012 08:56 12,5 C 82 % 1012,8 hPa 0,0 l/m 19,1 km/h (3 Bft) W 270 9,5 C 12,5 C
14.09.2012 09:01 12,5 C 82 % 1012,8 hPa 0,0 l/m 5,0 km/h (1 Bft) S 180 9,5 C 12,5 C
14.09.2012 09:06 12,7 C 81 % 1012,7 hPa 0,0 l/m 10,8 km/h (2 Bft) SW 225 9,5 C 12,7 C
14.09.2012 09:11 12,9 C 81 % 1012,7 hPa 0,0 l/m 2,9 km/h (1 Bft) W-SW 247 9,7 C 12,9 C
14.09.2012 09:16 13,3 C 80 % 1012,7 hPa 0,0 l/m 12,2 km/h (2 Bft) W-SW 247 9,9 C 13,3 C
14.09.2012 09:21 13,3 C 80 % 1012,6 hPa 0,0 l/m 14,4 km/h (3 Bft) S 180 9,9 C 13,3 C
14.09.2012 09:26 13,4 C 79 % 1012,5 hPa 0,0 l/m 11,2 km/h (2 Bft) W-SW 247 9,8 C 13,4 C
14.09.2012 09:31 13,6 C 79 % 1012,4 hPa 0,0 l/m 11,2 km/h (2 Bft) W-SW 247 10,0 C 13,6 C
14.09.2012 09:36 13,9 C 78 % 1012,3 hPa 0,0 l/m 11,5 km/h (2 Bft) W-SW 247 10,1 C 13,9 C
14.09.2012 09:41 14,2 C 77 % 1012,2 hPa 0,0 l/m 17,3 km/h (3 Bft) SW 225 10,2 C 14,2 C
14.09.2012 09:46 14,4 C 77 % 1012,2 hPa 0,0 l/m 10,1 km/h (2 Bft) S-SW 202 10,4 C 14,4 C
14.09.2012 09:51 14,6 C 75 % 1012,0 hPa 0,0 l/m 4,7 km/h (1 Bft) SW 225 10,2 C 14,6 C
14.09.2012 09:56 14,8 C 75 % 1011,8 hPa 0,0 l/m 23,4 km/h (4 Bft) S-SW 202 10,4 C 14,8 C
14.09.2012 10:01 14,9 C 74 % 1011,6 hPa 0,0 l/m 15,1 km/h (3 Bft) W-SW 247 10,3 C 14,9 C
14.09.2012 10:06 14,9 C 74 % 1011,6 hPa 0,0 l/m 16,2 km/h (3 Bft) SO 135 10,3 C 14,9 C
14.09.2012 10:11 15,3 C 72 % 1011,6 hPa 0,0 l/m 19,1 km/h (3 Bft) SW 225 10,3 C 15,3 C
14.09.2012 10:16 15,5 C 72 % 1011,6 hPa 0,0 l/m 8,3 km/h (2 Bft) W 270 10,5 C 15,5 C
14.09.2012 10:21 15,9 C 71 % 1011,6 hPa 0,0 l/m 12,2 km/h (2 Bft) S-SW 202 10,6 C 15,9 C
14.09.2012 10:26 16,3 C 69 % 1011,8 hPa 0,0 l/m 35,3 km/h (5 Bft) W 270 10,6 C 16,3 C
14.09.2012 10:31 16,3 C 66 % 1011,8 hPa 0,0 l/m 20,5 km/h (4 Bft) W 270 9,9 C 16,3 C
14.09.2012 10:36 16,2 C 66 % 1011,8 hPa 0,0 l/m 12,2 km/h (2 Bft) W 270 9,8 C 16,2 C
14.09.2012 10:41 16,2 C 67 % 1011,7 hPa 0,0 l/m 28,1 km/h (4 Bft) W 270 10,1 C 16,2 C
14.09.2012 10:46 16,3 C 67 % 1011,7 hPa 0,0 l/m 26,6 km/h (4 Bft) W-SW 247 10,2 C 16,3 C
14.09.2012 10:51 16,3 C 66 % 1011,6 hPa 0,0 l/m 23,0 km/h (4 Bft) W-SW 247 9,9 C 16,3 C
14.09.2012 10:56 16,3 C 65 % 1011,4 hPa 0,0 l/m 26,6 km/h (4 Bft) W-SW 247 9,7 C 16,3 C
14.09.2012 11:01 16,4 C 64 % 1011,4 hPa 0,0 l/m 15,5 km/h (3 Bft) SW 225 9,6 C 16,4 C
14.09.2012 11:06 16,5 C 64 % 1011,3 hPa 0,0 l/m 9,7 km/h (2 Bft) W-SW 247 9,7 C 16,5 C
14.09.2012 11:11 16,6 C 64 % 1011,0 hPa 0,0 l/m 6,1 km/h (2 Bft) S-SW 202 9,8 C 16,6 C
14.09.2012 11:16 16,9 C 63 % 1011,0 hPa 0,0 l/m 11,5 km/h (2 Bft) W 270 9,8 C 16,9 C
14.09.2012 11:21 17,3 C 61 % 1011,0 hPa 0,0 l/m 6,1 km/h (2 Bft) W-SW 247 9,7 C 17,3 C
14.09.2012 11:26 17,5 C 60 % 1011,0 hPa 0,0 l/m 20,9 km/h (4 Bft) S 180 9,6 C 17,5 C
14.09.2012 11:31 17,4 C 60 % 1010,9 hPa 0,0 l/m 11,5 km/h (2 Bft) S-SW 202 9,6 C 17,4 C
14.09.2012 11:36 17,3 C 59 % 1010,8 hPa 0,0 l/m 9,4 km/h (2 Bft) SW 225 9,2 C 17,3 C
14.09.2012 11:41 17,4 C 58 % 1010,8 hPa 0,0 l/m 19,1 km/h (3 Bft) W-SW 247 9,1 C 17,4 C
14.09.2012 11:46 17,4 C 57 % 1010,8 hPa 0,0 l/m 14,0 km/h (3 Bft) W-SW 247 8,8 C 17,4 C
14.09.2012 11:51 17,6 C 57 % 1010,7 hPa 0,0 l/m 26,6 km/h (4 Bft) S 180 9,0 C 17,6 C
14.09.2012 11:56 17,8 C 56 % 1010,7 hPa 0,0 l/m 28,1 km/h (4 Bft) SW 225 8,9 C 17,8 C
14.09.2012 12:01 17,9 C 55 % 1010,6 hPa 0,0 l/m 13,3 km/h (3 Bft) S-SW 202 8,7 C 17,9 C
14.09.2012 12:06 17,9 C 55 % 1010,6 hPa 0,0 l/m 14,4 km/h (3 Bft) S-SW 202 8,7 C 17,9 C
14.09.2012 12:11 17,9 C 55 % 1010,5 hPa 0,0 l/m 36,0 km/h (5 Bft) W-SW 247 8,7 C 17,9 C
14.09.2012 12:16 18,1 C 55 % 1010,4 hPa 0,0 l/m 18,7 km/h (3 Bft) W 270 8,9 C 18,1 C
14.09.2012 12:21 17,9 C 55 % 1010,3 hPa 0,0 l/m 11,9 km/h (2 Bft) W-SW 247 8,7 C 17,9 C
14.09.2012 12:26 17,8 C 55 % 1010,4 hPa 0,0 l/m 19,8 km/h (3 Bft) W 270 8,6 C 17,8 C
14.09.2012 12:31 17,5 C 56 % 1010,2 hPa 0,0 l/m 23,8 km/h (4 Bft) W-NW 292 8,6 C 17,5 C
14.09.2012 12:36 17,6 C 57 % 1010,1 hPa 0,0 l/m 25,2 km/h (4 Bft) W 270 9,0 C 17,6 C
14.09.2012 12:41 17,8 C 57 % 1009,9 hPa 0,0 l/m 30,6 km/h (5 Bft) W-SW 247 9,2 C 17,8 C
14.09.2012 12:46 17,9 C 55 % 1009,7 hPa 0,0 l/m 24,8 km/h (4 Bft) W-SW 247 8,7 C 17,9 C
14.09.2012 12:51 17,9 C 55 % 1009,6 hPa 0,0 l/m 13,0 km/h (3 Bft) SW 225 8,7 C 17,9 C
14.09.2012 12:56 17,9 C 55 % 1009,6 hPa 0,0 l/m 15,5 km/h (3 Bft) SW 225 8,7 C 17,9 C
14.09.2012 13:01 17,8 C 56 % 1009,7 hPa 0,0 l/m 18,4 km/h (3 Bft) SW 225 8,9 C 17,8 C
14.09.2012 13:06 17,6 C 56 % 1009,5 hPa 0,0 l/m 16,6 km/h (3 Bft) W-SW 247 8,7 C 17,6 C
14.09.2012 13:11 17,4 C 56 % 1009,4 hPa 0,0 l/m 15,8 km/h (3 Bft) SW 225 8,5 C 17,4 C
14.09.2012 13:16 17,4 C 56 % 1009,3 hPa 0,0 l/m 14,4 km/h (3 Bft) W 270 8,5 C 17,4 C
14.09.2012 13:21 17,4 C 57 % 1009,2 hPa 0,0 l/m 7,9 km/h (2 Bft) S-SW 202 8,8 C 17,4 C
14.09.2012 13:26 17,3 C 57 % 1009,2 hPa 0,0 l/m 14,4 km/h (3 Bft) S-SW 202 8,7 C 17,3 C
14.09.2012 13:31 17,3 C 57 % 1009,3 hPa 0,0 l/m 12,6 km/h (3 Bft) S-SW 202 8,7 C 17,3 C
14.09.2012 13:36 17,4 C 56 % 1009,2 hPa 0,0 l/m 10,8 km/h (2 Bft) SW 225 8,5 C 17,4 C
14.09.2012 13:41 17,5 C 57 % 1009,4 hPa 0,0 l/m 17,6 km/h (3 Bft) W-SW 247 8,9 C 17,5 C
14.09.2012 13:46 17,6 C 57 % 1009,4 hPa 0,0 l/m 18,0 km/h (3 Bft) W 270 9,0 C 17,6 C
14.09.2012 13:51 17,9 C 57 % 1009,3 hPa 0,0 l/m 15,5 km/h (3 Bft) W-SW 247 9,3 C 17,9 C
14.09.2012 13:56 18,1 C 55 % 1009,2 hPa 0,0 l/m 20,5 km/h (4 Bft) W 270 8,9 C 18,1 C
14.09.2012 14:01 18,2 C 55 % 1009,3 hPa 0,0 l/m 37,1 km/h (5 Bft) W-SW 247 9,0 C 18,2 C
14.09.2012 14:06 18,4 C 56 % 1009,2 hPa 0,0 l/m 7,2 km/h (2 Bft) SW 225 9,5 C 18,4 C
14.09.2012 14:11 18,6 C 55 % 1009,1 hPa 0,0 l/m 15,5 km/h (3 Bft) W 270 9,4 C 18,6 C
14.09.2012 14:16 18,8 C 54 % 1008,8 hPa 0,0 l/m 17,3 km/h (3 Bft) SW 225 9,3 C 18,8 C
14.09.2012 14:21 18,6 C 54 % 1008,5 hPa 0,0 l/m 18,4 km/h (3 Bft) S-SW 202 9,1 C 18,6 C
14.09.2012 14:26 18,6 C 54 % 1008,7 hPa 0,0 l/m 19,1 km/h (3 Bft) SW 225 9,1 C 18,6 C
14.09.2012 14:31 18,5 C 55 % 1008,6 hPa 0,0 l/m 30,2 km/h (5 Bft) SW 225 9,3 C 18,5 C
14.09.2012 14:36 18,4 C 54 % 1008,5 hPa 0,0 l/m 11,9 km/h (2 Bft) S-SW 202 8,9 C 18,4 C
14.09.2012 14:41 18,6 C 54 % 1008,4 hPa 0,0 l/m 24,8 km/h (4 Bft) W 270 9,1 C 18,6 C
14.09.2012 14:46 18,8 C 53 % 1008,3 hPa 0,0 l/m 10,4 km/h (2 Bft) W-SW 247 9,0 C 18,8 C
14.09.2012 14:51 18,8 C 54 % 1008,3 hPa 0,0 l/m 24,1 km/h (4 Bft) S-SW 202 9,3 C 18,8 C
14.09.2012 14:56 18,9 C 53 % 1008,3 hPa 0,0 l/m 13,7 km/h (3 Bft) S-SW 202 9,1 C 18,9 C
14.09.2012 15:01 19,1 C 53 % 1008,2 hPa 0,0 l/m 9,7 km/h (2 Bft) W 270 9,3 C 19,1 C
14.09.2012 15:06 19,2 C 53 % 1008,0 hPa 0,0 l/m 28,8 km/h (4 Bft) SW 225 9,4 C 19,2 C
14.09.2012 15:11 19,3 C 53 % 1008,0 hPa 0,0 l/m 22,7 km/h (4 Bft) W-SW 247 9,5 C 19,3 C
14.09.2012 15:16 19,3 C 52 % 1008,0 hPa 0,0 l/m 16,2 km/h (3 Bft) W-SW 247 9,2 C 19,3 C
14.09.2012 15:21 19,1 C 51 % 1007,9 hPa 0,0 l/m 26,6 km/h (4 Bft) W 270 8,7 C 19,1 C
14.09.2012 15:26 19,1 C 52 % 1007,8 hPa 0,0 l/m 16,2 km/h (3 Bft) W 270 9,0 C 19,1 C
14.09.2012 15:31 18,9 C 51 % 1007,8 hPa 0,0 l/m 13,7 km/h (3 Bft) W 270 8,5 C 18,9 C
14.09.2012 15:36 18,9 C 52 % 1007,8 hPa 0,0 l/m 10,8 km/h (2 Bft) W-SW 247 8,8 C 18,9 C
14.09.2012 15:41 18,9 C 52 % 1007,7 hPa 0,0 l/m 19,1 km/h (3 Bft) W 270 8,8 C 18,9 C
14.09.2012 15:46 19,1 C 52 % 1007,6 hPa 0,0 l/m 9,4 km/h (2 Bft) W-SW 247 9,0 C 19,1 C
14.09.2012 15:51 18,9 C 52 % 1007,7 hPa 0,0 l/m 19,8 km/h (3 Bft) W 270 8,8 C 18,9 C
14.09.2012 15:56 18,8 C 53 % 1007,6 hPa 0,0 l/m 13,7 km/h (3 Bft) W-SW 247 9,0 C 18,8 C
14.09.2012 16:01 18,9 C 53 % 1007,4 hPa 0,0 l/m 23,4 km/h (4 Bft) NW 315 9,1 C 18,9 C
14.09.2012 16:06 18,9 C 52 % 1007,4 hPa 0,0 l/m 17,6 km/h (3 Bft) W 270 8,8 C 18,9 C
14.09.2012 16:11 18,8 C 52 % 1007,3 hPa 0,0 l/m 29,9 km/h (5 Bft) W-SW 247 8,7 C 18,8 C
14.09.2012 16:16 18,7 C 52 % 1007,2 hPa 0,0 l/m 20,9 km/h (4 Bft) W 270 8,6 C 18,7 C
14.09.2012 16:21 18,7 C 54 % 1007,2 hPa 0,0 l/m 16,6 km/h (3 Bft) W 270 9,2 C 18,7 C
14.09.2012 16:26 18,6 C 53 % 1007,3 hPa 0,0 l/m 34,9 km/h (5 Bft) W-SW 247 8,8 C 18,6 C
14.09.2012 16:31 18,4 C 53 % 1007,3 hPa 0,0 l/m 28,8 km/h (4 Bft) W-SW 247 8,6 C 18,4 C
14.09.2012 16:36 18,2 C 54 % 1007,2 hPa 0,0 l/m 15,5 km/h (3 Bft) W-SW 247 8,7 C 18,2 C
14.09.2012 16:41 18,0 C 55 % 1007,2 hPa 0,0 l/m 18,4 km/h (3 Bft) W 270 8,8 C 18,0 C
14.09.2012 16:46 17,9 C 56 % 1007,2 hPa 0,0 l/m 5,8 km/h (2 Bft) NW 315 9,0 C 17,9 C
14.09.2012 16:51 17,8 C 56 % 1007,2 hPa 0,0 l/m 26,6 km/h (4 Bft) W-SW 247 8,9 C 17,8 C
14.09.2012 16:56 17,7 C 56 % 1007,2 hPa 0,0 l/m 7,9 km/h (2 Bft) W 270 8,8 C 17,7 C
14.09.2012 17:01 17,6 C 57 % 1007,1 hPa 0,0 l/m 17,6 km/h (3 Bft) W-SW 247 9,0 C 17,6 C
14.09.2012 17:06 17,6 C 57 % 1007,2 hPa 0,0 l/m 6,1 km/h (2 Bft) W-NW 292 9,0 C 17,6 C
14.09.2012 17:11 17,6 C 57 % 1007,1 hPa 0,0 l/m 22,7 km/h (4 Bft) W 270 9,0 C 17,6 C
14.09.2012 17:16 17,6 C 57 % 1007,0 hPa 0,0 l/m 23,0 km/h (4 Bft) W 270 9,0 C 17,6 C
14.09.2012 17:21 17,6 C 57 % 1007,2 hPa 0,0 l/m 30,2 km/h (5 Bft) W 270 9,0 C 17,6 C
14.09.2012 17:26 17,6 C 57 % 1007,0 hPa 0,0 l/m 10,8 km/h (2 Bft) W-NW 292 9,0 C 17,6 C
14.09.2012 17:31 17,5 C 57 % 1006,9 hPa 0,0 l/m 20,9 km/h (4 Bft) W 270 8,9 C 17,5 C
14.09.2012 17:36 17,3 C 58 % 1007,0 hPa 0,0 l/m 31,3 km/h (5 Bft) W 270 9,0 C 17,3 C
14.09.2012 17:41 17,3 C 58 % 1006,9 hPa 0,0 l/m 19,8 km/h (3 Bft) W-SW 247 9,0 C 17,3 C
14.09.2012 17:46 17,2 C 59 % 1006,9 hPa 0,0 l/m 18,4 km/h (3 Bft) W 270 9,1 C 17,2 C
14.09.2012 17:51 17,2 C 59 % 1006,8 hPa 0,0 l/m 13,0 km/h (3 Bft) W-SW 247 9,1 C 17,2 C
14.09.2012 17:56 17,1 C 60 % 1006,9 hPa 0,0 l/m 24,1 km/h (4 Bft) W-NW 292 9,3 C 17,1 C
14.09.2012 18:01 17,0 C 60 % 1006,9 hPa 0,0 l/m 31,7 km/h (5 Bft) SW 225 9,2 C 17,0 C
14.09.2012 18:06 16,9 C 60 % 1007,0 hPa 0,0 l/m 33,5 km/h (5 Bft) W 270 9,1 C 16,9 C
14.09.2012 18:11 16,9 C 61 % 1007,0 hPa 0,0 l/m 9,4 km/h (2 Bft) W 270 9,3 C 16,9 C
14.09.2012 18:16 16,8 C 62 % 1007,0 hPa 0,0 l/m 9,7 km/h (2 Bft) W-SW 247 9,5 C 16,8 C
14.09.2012 18:21 16,7 C 62 % 1007,0 hPa 0,0 l/m 17,6 km/h (3 Bft) W 270 9,4 C 16,7 C
14.09.2012 18:26 16,6 C 63 % 1007,1 hPa 0,0 l/m 24,1 km/h (4 Bft) W-SW 247 9,5 C 16,6 C
14.09.2012 18:31 16,6 C 63 % 1007,3 hPa 0,0 l/m 6,5 km/h (2 Bft) W-SW 247 9,5 C 16,6 C
14.09.2012 18:36 16,4 C 65 % 1007,2 hPa 0,0 l/m 10,1 km/h (2 Bft) W 270 9,8 C 16,4 C
14.09.2012 18:41 16,2 C 66 % 1007,1 hPa 0,0 l/m 19,1 km/h (3 Bft) W-SW 247 9,8 C 16,2 C
14.09.2012 18:46 16,1 C 67 % 1007,2 hPa 0,0 l/m 20,9 km/h (4 Bft) W-SW 247 10,0 C 16,1 C
14.09.2012 18:51 16,1 C 67 % 1007,0 hPa 0,0 l/m 25,6 km/h (4 Bft) W 270 10,0 C 16,1 C
14.09.2012 18:56 15,9 C 67 % 1007,1 hPa 0,0 l/m 17,6 km/h (3 Bft) SW 225 9,8 C 15,9 C
14.09.2012 19:01 15,9 C 68 % 1007,2 hPa 0,0 l/m 5,4 km/h (1 Bft) W 270 10,0 C 15,9 C
14.09.2012 19:06 15,8 C 69 % 1007,2 hPa 0,0 l/m 41,0 km/h (6 Bft) W 270 10,1 C 15,8 C
14.09.2012 19:11 15,8 C 69 % 1007,1 hPa 0,0 l/m 14,4 km/h (3 Bft) W-NW 292 10,1 C 15,8 C
14.09.2012 19:16 15,6 C 70 % 1007,2 hPa 0,0 l/m 20,5 km/h (4 Bft) W 270 10,1 C 15,6 C
14.09.2012 19:21 15,5 C 72 % 1007,1 hPa 0,0 l/m 31,0 km/h (5 Bft) W 270 10,5 C 15,5 C
14.09.2012 19:26 15,3 C 73 % 1007,1 hPa 0,0 l/m 14,0 km/h (3 Bft) W 270 10,5 C 15,3 C
14.09.2012 19:31 15,1 C 75 % 1007,1 hPa 0,0 l/m 19,1 km/h (3 Bft) W 270 10,7 C 15,1 C
14.09.2012 19:36 14,9 C 77 % 1007,1 hPa 0,0 l/m 22,0 km/h (4 Bft) W 270 10,9 C 14,9 C
14.09.2012 19:41 14,8 C 77 % 1007,0 hPa 0,0 l/m 15,8 km/h (3 Bft) W-SW 247 10,8 C 14,8 C
14.09.2012 19:46 14,6 C 79 % 1007,0 hPa 0,0 l/m 19,8 km/h (3 Bft) W-SW 247 11,0 C 14,6 C
14.09.2012 19:51 14,4 C 79 % 1007,1 hPa 0,0 l/m 7,6 km/h (2 Bft) W-SW 247 10,8 C 14,4 C
14.09.2012 19:56 14,4 C 79 % 1007,1 hPa 0,0 l/m 18,0 km/h (3 Bft) W-SW 247 10,8 C 14,4 C
14.09.2012 20:01 14,3 C 80 % 1007,2 hPa 0,0 l/m 22,0 km/h (4 Bft) W-SW 247 10,9 C 14,3 C
14.09.2012 20:06 14,3 C 81 % 1007,3 hPa 0,0 l/m 10,4 km/h (2 Bft) SW 225 11,1 C 14,3 C
14.09.2012 20:11 14,2 C 81 % 1007,3 hPa 0,0 l/m 6,5 km/h (2 Bft) SW 225 11,0 C 14,2 C
14.09.2012 20:16 14,2 C 81 % 1007,2 hPa 0,0 l/m 13,7 km/h (3 Bft) SW 225 11,0 C 14,2 C
14.09.2012 20:21 14,1 C 81 % 1007,1 hPa 0,0 l/m 10,1 km/h (2 Bft) SW 225 10,9 C 14,1 C
14.09.2012 20:26 14,1 C 81 % 1007,2 hPa 0,0 l/m 11,5 km/h (2 Bft) W 270 10,9 C 14,1 C
14.09.2012 20:31 14,1 C 82 % 1007,1 hPa 0,0 l/m 13,7 km/h (3 Bft) W 270 11,1 C 14,1 C
14.09.2012 20:36 14,1 C 82 % 1007,2 hPa 0,0 l/m 16,9 km/h (3 Bft) W-SW 247 11,1 C 14,1 C
14.09.2012 20:41 13,9 C 83 % 1007,3 hPa 0,0 l/m 35,3 km/h (5 Bft) W-SW 247 11,1 C 13,9 C
14.09.2012 20:46 13,9 C 83 % 1007,4 hPa 0,0 l/m 13,0 km/h (3 Bft) W-SW 247 11,1 C 13,9 C
14.09.2012 20:51 13,9 C 83 % 1007,4 hPa 0,0 l/m 15,8 km/h (3 Bft) W-SW 247 11,1 C 13,9 C
14.09.2012 20:56 13,9 C 84 % 1007,3 hPa 0,0 l/m 27,7 km/h (4 Bft) W 270 11,2 C 13,9 C
14.09.2012 21:01 13,8 C 84 % 1007,4 hPa 0,0 l/m 10,4 km/h (2 Bft) SW 225 11,1 C 13,8 C
14.09.2012 21:06 13,8 C 85 % 1007,3 hPa 0,0 l/m 13,3 km/h (3 Bft) S-SW 202 11,3 C 13,8 C
14.09.2012 21:11 13,7 C 85 % 1007,3 hPa 0,0 l/m 19,4 km/h (3 Bft) W-SW 247 11,2 C 13,7 C
14.09.2012 21:16 13,6 C 85 % 1007,3 hPa 0,0 l/m 19,8 km/h (3 Bft) W-SW 247 11,1 C 13,6 C
14.09.2012 21:21 13,6 C 85 % 1007,4 hPa 0,0 l/m 18,4 km/h (3 Bft) W 270 11,1 C 13,6 C
14.09.2012 21:26 13,6 C 85 % 1007,4 hPa 0,0 l/m 18,0 km/h (3 Bft) SW 225 11,1 C 13,6 C
14.09.2012 21:31 13,6 C 85 % 1007,5 hPa 0,0 l/m 27,4 km/h (4 Bft) W 270 11,1 C 13,6 C
14.09.2012 21:36 13,5 C 84 % 1007,5 hPa 0,0 l/m 18,0 km/h (3 Bft) W-SW 247 10,8 C 13,5 C
14.09.2012 21:41 13,5 C 83 % 1007,4 hPa 0,0 l/m 14,8 km/h (3 Bft) W-SW 247 10,7 C 13,5 C
14.09.2012 21:46 13,4 C 83 % 1007,6 hPa 0,0 l/m 0,0 km/h (0 Bft) W 270 10,6 C 13,4 C
14.09.2012 21:51 13,3 C 83 % 1007,6 hPa 0,0 l/m 17,6 km/h (3 Bft) W-SW 247 10,5 C 13,3 C
14.09.2012 21:56 13,3 C 83 % 1007,6 hPa 0,0 l/m 13,0 km/h (3 Bft) W-SW 247 10,5 C 13,3 C
14.09.2012 22:01 13,2 C 82 % 1007,7 hPa 0,0 l/m 5,4 km/h (1 Bft) W-NW 292 10,2 C 13,2 C
14.09.2012 22:06 13,1 C 82 % 1007,9 hPa 0,0 l/m 6,8 km/h (2 Bft) W 270 10,1 C 13,1 C
14.09.2012 22:11 13,1 C 83 % 1007,9 hPa 0,0 l/m 5,8 km/h (2 Bft) W 270 10,3 C 13,1 C
14.09.2012 22:16 13,0 C 83 % 1008,0 hPa 0,0 l/m 17,6 km/h (3 Bft) W-SW 247 10,2 C 13,0 C
14.09.2012 22:21 12,9 C 83 % 1007,9 hPa 0,0 l/m 8,6 km/h (2 Bft) W 270 10,1 C 12,9 C
14.09.2012 22:26 12,9 C 83 % 1007,9 hPa 0,0 l/m 10,1 km/h (2 Bft) W 270 10,1 C 12,9 C
14.09.2012 22:31 12,9 C 84 % 1008,0 hPa 0,0 l/m 10,4 km/h (2 Bft) W-SW 247 10,3 C 12,9 C
14.09.2012 22:36 12,9 C 84 % 1008,0 hPa 0,0 l/m 22,7 km/h (4 Bft) W-SW 247 10,3 C 12,9 C
14.09.2012 22:41 12,9 C 85 % 1008,1 hPa 0,0 l/m 18,0 km/h (3 Bft) W-SW 247 10,4 C 12,9 C
14.09.2012 22:46 12,9 C 85 % 1008,1 hPa 0,0 l/m 8,3 km/h (2 Bft) SW 225 10,4 C 12,9 C
14.09.2012 22:51 12,8 C 85 % 1008,1 hPa 0,0 l/m 8,3 km/h (2 Bft) W-SW 247 10,3 C 12,8 C
14.09.2012 22:56 12,8 C 85 % 1008,0 hPa 0,0 l/m 18,7 km/h (3 Bft) W-SW 247 10,3 C 12,8 C
14.09.2012 23:01 12,9 C 85 % 1008,1 hPa 0,0 l/m 15,5 km/h (3 Bft) W-SW 247 10,4 C 12,9 C
14.09.2012 23:06 12,9 C 85 % 1008,2 hPa 0,0 l/m 10,4 km/h (2 Bft) SW 225 10,4 C 12,9 C
14.09.2012 23:11 12,9 C 85 % 1008,3 hPa 0,0 l/m 13,0 km/h (3 Bft) W-SW 247 10,4 C 12,9 C
14.09.2012 23:16 12,9 C 85 % 1008,2 hPa 0,0 l/m 11,9 km/h (2 Bft) W-SW 247 10,4 C 12,9 C
14.09.2012 23:21 12,9 C 85 % 1008,3 hPa 0,0 l/m 14,0 km/h (3 Bft) W 270 10,4 C 12,9 C
14.09.2012 23:26 12,9 C 85 % 1008,4 hPa 0,0 l/m 11,9 km/h (2 Bft) W-SW 247 10,4 C 12,9 C
14.09.2012 23:31 12,9 C 85 % 1008,4 hPa 0,0 l/m 17,6 km/h (3 Bft) W 270 10,4 C 12,9 C
14.09.2012 23:36 12,9 C 85 % 1008,4 hPa 0,0 l/m 10,8 km/h (2 Bft) W 270 10,4 C 12,9 C
14.09.2012 23:41 12,9 C 85 % 1008,4 hPa 0,0 l/m 10,8 km/h (2 Bft) SW 225 10,4 C 12,9 C
14.09.2012 23:46 12,9 C 85 % 1008,5 hPa 0,0 l/m 18,4 km/h (3 Bft) W-SW 247 10,4 C 12,9 C
14.09.2012 23:51 12,9 C 85 % 1008,4 hPa 0,0 l/m 12,2 km/h (2 Bft) W 270 10,4 C 12,9 C
14.09.2012 23:56 12,8 C 84 % 1008,6 hPa 0,0 l/m 20,5 km/h (4 Bft) W-NW 292 10,2 C 12,8 C
_ Min-Zeit 04:06 15:21 17:51 - 00:11 - - 03:11 04:41
Minimum _ 9,6 C 51 % 1006,8 hPa - 0,0 km/h (0 Bft) - - 7,2 C 9,5 C
_ Max-Zeit 15:11 04:56 00:01 00:01 19:06 - - 21:06 15:11
Maximum _ 19,3 C 87 % 1017,1 hPa 0,0 l/m 41,0 km/h
W (6 Bft)
- - 11,3 C 19,3 C
Durchschnitt _ 14,1 C 74 % 1011,0 hPa #0,0 l/m 12,1 km/h (2 Bft) W-SW - 9,2 C 14,1 C
(c) by David Heller